createdAt,value
2022-12-15T00:00:32.197Z,123.10
2022-12-15T00:03:22.425Z,129.40
2022-12-15T00:06:02.353Z,121.88
2022-12-15T00:08:42.701Z,127.00
2022-12-15T00:11:22.764Z,114.30
2022-12-15T00:14:02.876Z,119.85
2022-12-15T00:16:43.014Z,110.10
2022-12-15T00:19:23.394Z,116.70
2022-12-15T00:22:03.292Z,120.53
2022-12-15T00:24:43.547Z,132.73
2022-12-15T00:27:23.728Z,121.88
2022-12-15T00:30:03.894Z,116.32
2022-12-15T00:32:44.079Z,120.38
2022-12-15T00:35:24.419Z,112.35
2022-12-15T00:38:04.283Z,119.63
2022-12-15T00:40:34.377Z,118.37
2022-12-15T00:43:04.362Z,130.63
2022-12-15T00:45:44.881Z,116.75
2022-12-15T00:48:14.922Z,115.20
2022-12-15T00:50:54.426Z,117.38
2022-12-15T00:53:45.295Z,121.80
2022-12-15T00:59:15.582Z,124.90
2022-12-15T01:01:55.958Z,128.18
2022-12-15T01:04:35.875Z,145.43
2022-12-15T01:07:16.103Z,120.17
2022-12-15T01:09:56.281Z,128.90
2022-12-15T01:12:36.556Z,149.38
2022-12-15T01:15:16.704Z,122.85
2022-12-15T01:17:56.903Z,130.23
2022-12-15T01:20:26.870Z,121.72
2022-12-15T01:22:58.355Z,125.38
2022-12-15T01:25:29.727Z,131.25
2022-12-15T01:27:59.799Z,116.45
2022-12-15T01:30:30.301Z,125.65
2022-12-15T01:33:00.229Z,137.55
2022-12-15T01:35:30.157Z,128.45
2022-12-15T01:38:00.083Z,136.48
2022-12-15T01:40:48.262Z,127.07
2022-12-15T01:43:22.714Z,136.23
2022-12-15T01:45:58.912Z,142.25
2022-12-15T01:48:50.532Z,125.63
2022-12-15T01:51:33.081Z,148.40
2022-12-15T01:54:27.798Z,131.70
2022-12-15T01:57:03.241Z,132.73
2022-12-15T01:59:38.765Z,129.23
2022-12-15T02:02:12.047Z,131.82
2022-12-15T02:04:43.315Z,148.55
2022-12-15T02:07:18.430Z,139.07
2022-12-15T02:09:50.309Z,150.02
2022-12-15T02:12:50.792Z,143.73
2022-12-15T02:15:40.731Z,145.90
2022-12-15T02:18:30.916Z,151.48
2022-12-15T02:21:21.287Z,170.18
2022-12-15T02:24:34.007Z,161.23
2022-12-15T02:27:36.753Z,154.88
2022-12-15T02:30:43.407Z,153.15
2022-12-15T02:33:26.508Z,174.70
2022-12-15T02:36:04.739Z,184.68
2022-12-15T02:38:39.089Z,162.02
2022-12-15T02:41:29.363Z,181.90
2022-12-15T02:43:59.388Z,151.65
2022-12-15T02:46:48.242Z,155.27
2022-12-15T02:49:33.933Z,178.30
2022-12-15T02:52:43.798Z,162.00
2022-12-15T02:55:39.940Z,154.07
2022-12-15T02:58:33.957Z,154.73
2022-12-15T03:01:28.750Z,157.70
2022-12-15T03:04:01.086Z,152.70
2022-12-15T03:06:31.669Z,182.45
2022-12-15T03:09:01.681Z,167.10
2022-12-15T03:11:31.701Z,162.15
2022-12-15T03:14:02.521Z,175.55
2022-12-15T03:16:33.774Z,156.10
2022-12-15T03:19:06.811Z,172.27
2022-12-15T03:21:36.761Z,160.07
2022-12-15T03:24:07.017Z,172.85
2022-12-15T03:26:36.914Z,164.43
2022-12-15T03:29:07.088Z,171.80
2022-12-15T03:31:38.120Z,173.90
2022-12-15T03:34:08.176Z,184.20
2022-12-15T03:36:38.358Z,180.45
2022-12-15T03:39:08.575Z,161.65
2022-12-15T03:41:38.510Z,171.88
2022-12-15T05:42:11.886Z,96.28
2022-12-15T06:40:21.627Z,100.45
2022-12-15T06:42:51.928Z,93.43
2022-12-15T06:52:43.841Z,92.18
2022-12-15T06:55:13.703Z,91.15
2022-12-15T06:57:49.917Z,90.72
2022-12-15T07:00:20.143Z,87.38
2022-12-15T07:02:51.039Z,79.32
2022-12-15T10:11:36.860Z,74.50
2022-12-15T10:14:19.062Z,75.72
2022-12-15T10:17:01.383Z,71.57
2022-12-15T11:56:26.873Z,123.30
2022-12-15T12:02:16.912Z,120.53
2022-12-15T12:05:17.082Z,118.82
2022-12-15T12:08:17.123Z,115.88
2022-12-15T12:11:17.244Z,134.52
2022-12-15T12:14:17.574Z,128.68
2022-12-15T12:17:09.066Z,131.15
2022-12-15T12:19:56.214Z,134.82
2022-12-15T12:22:42.459Z,141.00
2022-12-15T12:25:24.846Z,135.75
2022-12-15T12:28:02.860Z,138.90
2022-12-15T12:30:42.637Z,135.88
2022-12-15T12:33:34.820Z,128.82
2022-12-15T12:36:13.300Z,126.38
2022-12-15T12:38:52.020Z,127.22
2022-12-15T12:41:42.730Z,124.45
2022-12-15T12:47:01.444Z,147.45
2022-12-15T12:49:41.271Z,138.27
2022-12-15T12:52:22.929Z,136.00
2022-12-15T12:55:25.956Z,131.55
2022-12-15T12:57:57.445Z,128.23
2022-12-15T13:00:35.178Z,137.68
2022-12-15T13:03:23.517Z,139.88
2022-12-15T13:05:56.282Z,127.55
2022-12-15T13:08:51.084Z,129.63
2022-12-15T13:11:52.661Z,129.85
2022-12-15T13:14:44.459Z,118.38
2022-12-15T13:17:36.007Z,124.88
2022-12-15T13:20:19.175Z,123.32
2022-12-15T13:22:49.281Z,129.88
2022-12-15T13:25:37.800Z,120.65
2022-12-15T13:28:30.150Z,121.75
2022-12-15T13:31:29.682Z,130.63
2022-12-15T13:34:12.615Z,128.35
2022-12-15T13:36:54.237Z,136.27
2022-12-15T13:39:54.228Z,135.55
2022-12-15T13:42:35.961Z,133.52
2022-12-15T13:45:19.336Z,140.73
2022-12-15T13:47:57.245Z,132.75
2022-12-15T13:50:41.118Z,147.77
2022-12-15T13:53:20.405Z,135.40
2022-12-15T13:56:17.957Z,127.75
2022-12-15T13:58:53.452Z,127.13
2022-12-15T14:01:32.610Z,148.30
2022-12-15T14:04:17.388Z,154.30
2022-12-15T14:07:08.278Z,171.60
2022-12-15T14:09:43.314Z,176.55
2022-12-15T14:12:15.984Z,181.38
2022-12-15T14:14:50.298Z,171.25
2022-12-15T14:17:22.478Z,174.40
2022-12-15T14:19:53.417Z,162.30
2022-12-15T14:22:29.420Z,163.05
2022-12-15T14:25:15.093Z,161.80
2022-12-15T14:27:45.007Z,169.82
2022-12-15T14:30:36.782Z,175.88
2022-12-15T14:33:14.926Z,185.10
2022-12-15T14:35:51.555Z,171.70
2022-12-15T14:38:28.870Z,166.65
2022-12-15T14:41:04.051Z,178.93
2022-12-15T14:43:41.217Z,180.70
2022-12-15T14:46:18.952Z,177.50
2022-12-15T14:49:08.391Z,206.52
2022-12-15T14:51:51.492Z,199.23
2022-12-15T14:54:39.689Z,190.75
2022-12-15T14:57:22.403Z,181.15
2022-12-15T14:59:54.854Z,188.35
2022-12-15T15:02:32.649Z,187.13
2022-12-15T15:05:06.348Z,194.30
2022-12-15T15:07:40.199Z,176.63
2022-12-15T15:10:31.735Z,165.30
2022-12-15T15:13:02.199Z,161.05
2022-12-15T15:15:32.256Z,161.20
2022-12-15T15:18:03.681Z,157.77
2022-12-15T15:20:37.615Z,147.27
2022-12-15T15:23:20.707Z,137.15
2022-12-15T15:25:58.283Z,144.90
2022-12-15T15:28:31.843Z,150.70
2022-12-15T15:31:08.429Z,144.80
2022-12-15T15:33:41.319Z,133.65
2022-12-15T15:36:13.186Z,135.00
2022-12-15T15:38:44.970Z,136.15
2022-12-15T15:41:23.269Z,130.50
2022-12-15T15:43:53.666Z,129.90
2022-12-15T15:46:27.373Z,142.50
2022-12-15T15:49:04.746Z,146.93
2022-12-15T15:51:35.758Z,136.70
2022-12-15T15:54:11.413Z,137.50
2022-12-15T15:56:41.436Z,150.20
2022-12-15T15:59:16.598Z,147.10
2022-12-15T16:01:50.311Z,167.73
2022-12-15T16:04:20.416Z,165.43
2022-12-15T16:06:51.231Z,157.25
2022-12-15T16:09:21.613Z,162.25
2022-12-15T16:11:52.321Z,186.73
2022-12-15T16:14:22.355Z,168.77
2022-12-15T16:16:52.472Z,174.07
2022-12-15T16:19:22.461Z,170.13
2022-12-15T16:21:54.717Z,173.73
2022-12-15T16:27:13.881Z,168.60
2022-12-15T16:32:29.910Z,168.60
2022-12-15T16:34:59.931Z,164.65
2022-12-15T16:37:33.617Z,167.15
2022-12-15T16:43:05.424Z,153.95
2022-12-15T16:45:35.275Z,165.02
2022-12-15T16:48:05.640Z,153.68
2022-12-15T16:50:40.449Z,156.52
2022-12-15T16:53:23.322Z,157.15
2022-12-15T16:55:58.244Z,151.30
2022-12-15T16:58:31.172Z,150.05
2022-12-15T17:01:01.512Z,156.25
2022-12-15T17:03:31.929Z,142.25
2022-12-15T17:08:48.700Z,153.45
2022-12-15T17:11:28.986Z,151.77
2022-12-15T17:16:48.222Z,142.27
2022-12-15T17:19:21.261Z,152.55
2022-12-15T17:21:56.342Z,143.80
2022-12-15T17:27:29.828Z,143.38
2022-12-15T17:35:34.015Z,151.05
2022-12-15T17:40:52.261Z,159.35
2022-12-15T17:43:33.769Z,154.43
2022-12-15T17:46:05.774Z,156.02
2022-12-15T17:48:36.879Z,157.52
2022-12-15T17:51:18.123Z,158.65
2022-12-15T17:53:49.552Z,155.70
2022-12-15T17:56:22.353Z,176.27
2022-12-15T17:58:52.288Z,168.20
2022-12-15T18:12:29.841Z,178.77
2022-12-15T18:15:00.285Z,175.00
2022-12-15T18:17:30.140Z,178.13
2022-12-15T18:20:00.257Z,205.27
2022-12-15T18:22:31.363Z,183.00
2022-12-15T18:25:01.820Z,187.55
2022-12-15T18:27:32.624Z,181.95
2022-12-15T18:30:02.619Z,172.85
2022-12-15T18:32:32.703Z,185.63
2022-12-15T18:37:52.261Z,184.43
2022-12-15T18:40:26.922Z,182.88
2022-12-15T18:45:44.412Z,206.05
2022-12-15T18:48:23.702Z,199.70
2022-12-15T18:50:55.966Z,185.45
2022-12-15T18:53:37.591Z,184.00
2022-12-15T18:56:10.578Z,178.38
2022-12-15T18:58:42.486Z,183.77
2022-12-15T19:01:13.013Z,185.65
2022-12-15T19:06:36.520Z,186.27
2022-12-15T19:09:09.716Z,190.60
2022-12-15T19:11:39.919Z,205.75
2022-12-15T19:14:35.842Z,197.60
2022-12-15T19:17:25.161Z,203.90
2022-12-15T19:20:12.791Z,205.60
2022-12-15T19:22:42.964Z,204.77
2022-12-15T19:25:25.542Z,219.00
2022-12-15T19:28:01.090Z,207.10
2022-12-15T19:30:40.277Z,215.25
2022-12-15T19:33:14.011Z,211.60
2022-12-15T19:35:47.278Z,214.07
2022-12-15T19:38:31.128Z,201.70
2022-12-15T19:41:02.156Z,217.23
2022-12-15T19:43:32.378Z,207.85
2022-12-15T19:46:02.535Z,198.48
2022-12-15T19:48:32.368Z,210.75
2022-12-15T19:51:02.271Z,214.80
2022-12-15T19:53:33.117Z,207.98
2022-12-15T19:56:03.861Z,189.25
2022-12-15T19:58:35.888Z,206.05
2022-12-15T20:01:16.552Z,198.82
2022-12-15T20:06:29.532Z,177.18
2022-12-15T20:08:59.667Z,174.20
2022-12-15T20:11:33.968Z,170.65
2022-12-15T20:14:03.970Z,173.90
2022-12-15T20:16:33.932Z,167.35
2022-12-15T20:19:04.093Z,170.70
2022-12-15T20:21:38.729Z,161.85
2022-12-15T20:24:21.894Z,164.68
2022-12-15T20:26:51.925Z,163.25
2022-12-15T20:29:31.044Z,162.88
2022-12-15T20:32:02.010Z,152.30
2022-12-15T20:34:31.996Z,153.20
2022-12-15T20:37:01.893Z,149.07
2022-12-15T20:39:32.621Z,174.60
2022-12-15T20:42:02.453Z,146.32
2022-12-15T20:44:32.341Z,151.48
2022-12-15T20:47:04.260Z,142.57
2022-12-15T20:49:34.361Z,137.88
2022-12-15T20:52:05.510Z,144.18
2022-12-15T20:54:35.408Z,137.25
2022-12-15T20:57:06.022Z,144.00
2022-12-15T21:02:15.438Z,143.13
2022-12-15T21:04:45.398Z,132.05
2022-12-15T21:07:15.778Z,141.38
2022-12-15T21:09:45.698Z,141.55
2022-12-15T21:12:22.582Z,160.10
2022-12-15T21:14:52.634Z,160.30
2022-12-15T21:17:25.813Z,163.07
2022-12-15T21:19:55.862Z,161.43
2022-12-15T21:22:30.350Z,159.20
2022-12-15T21:25:02.088Z,157.88
2022-12-15T21:27:32.242Z,165.43
2022-12-15T21:30:02.178Z,159.82
2022-12-15T21:32:32.150Z,164.18
2022-12-15T21:35:02.185Z,173.52
2022-12-15T21:37:32.643Z,167.82
2022-12-15T21:40:03.264Z,169.13
2022-12-15T21:45:02.646Z,167.73
2022-12-15T21:47:52.135Z,177.23
2022-12-15T21:50:22.372Z,162.13
2022-12-15T21:52:52.410Z,149.25
2022-12-15T21:55:24.962Z,150.90
2022-12-15T21:57:55.701Z,144.00
2022-12-15T22:02:56.660Z,145.85
2022-12-15T22:05:34.083Z,151.43
2022-12-15T22:08:17.484Z,137.40
2022-12-15T22:10:48.927Z,134.73
2022-12-15T22:13:22.945Z,145.38
2022-12-15T22:15:53.646Z,147.32
2022-12-15T22:18:25.701Z,133.98
2022-12-15T22:20:55.609Z,135.43
2022-12-15T22:23:25.502Z,125.93
2022-12-15T22:25:57.973Z,140.85
2022-12-15T22:28:29.822Z,133.13
2022-12-15T22:31:00.928Z,138.95
2022-12-15T22:33:31.217Z,135.15
2022-12-15T22:36:01.267Z,127.90
2022-12-15T22:38:31.577Z,127.65
2022-12-15T22:41:02.349Z,132.75
2022-12-15T22:43:43.777Z,131.73
2022-12-15T22:46:16.163Z,127.75
2022-12-15T22:48:50.568Z,121.70
2022-12-15T22:51:21.230Z,125.63
2022-12-15T22:59:04.929Z,118.90
2022-12-15T23:01:34.939Z,129.80
2022-12-15T23:04:06.228Z,116.70
2022-12-15T23:06:36.218Z,128.98
2022-12-15T23:09:07.346Z,124.72
2022-12-15T23:11:40.203Z,124.28
2022-12-15T23:14:12.883Z,134.02
2022-12-15T23:16:43.852Z,125.95
2022-12-15T23:19:25.325Z,120.55
2022-12-15T23:21:55.200Z,121.35
2022-12-15T23:24:25.076Z,129.25
2022-12-15T23:26:55.264Z,129.48
2022-12-15T23:29:25.388Z,119.47
2022-12-15T23:31:55.416Z,125.57
2022-12-15T23:34:25.661Z,121.05
2022-12-15T23:36:55.493Z,136.35
2022-12-15T23:39:25.381Z,123.67
2022-12-15T23:41:56.325Z,133.48
2022-12-15T23:44:26.116Z,124.57
2022-12-15T23:46:56.025Z,135.37
2022-12-15T23:49:26.033Z,132.40
2022-12-15T23:51:55.898Z,141.60
2022-12-15T23:54:25.930Z,123.15
2022-12-15T23:56:55.767Z,130.75
2022-12-15T23:59:25.723Z,145.50
